Time;durP1;ratioP1;P1;durP2;ratioP2;P2;SDS_P1;SDS_P2;PMS_P1;PMS_P2;Temp;Humidity;BMP_temperature;BMP_pressure;BME280_temperature;BME280_humidity;BME280_pressure;Samples;Min_cycle;Max_cycle;Signal;HPM_P1;HPM_P2
2022/10/21 00:02:14;;;;;;;22.70;18.03;;;;;;;;;;5051407;28;20219;-44
2022/10/21 00:04:40;;;;;;;19.43;17.03;;;;;;;;;;5051820;28;20224;-44
2022/10/21 00:07:07;;;;;;;20.00;17.90;;;;;;;;;;5049377;28;20831;-44
2022/10/21 00:09:33;;;;;;;19.93;16.83;;;;;;;;;;5051055;28;20281;-44
2022/10/21 00:11:59;;;;;;;17.97;15.73;;;;;;;;;;5051554;28;20200;-44
2022/10/21 00:14:25;;;;;;;20.40;17.83;;;;;;;;;;5051091;28;20196;-45
2022/10/21 00:16:51;;;;;;;20.90;17.40;;;;;;;;;;5047853;28;20689;-44
2022/10/21 00:19:17;;;;;;;21.43;18.40;;;;;;;;;;5051357;28;20230;-44
2022/10/21 00:21:43;;;;;;;21.03;18.37;;;;;;;;;;5051254;28;20287;-44
2022/10/21 00:24:11;;;;;;;21.33;17.40;;;;;;;;;;5050912;28;20239;-44
2022/10/21 00:26:37;;;;;;;20.37;17.20;;;;;;;;;;5051114;28;20242;-44
2022/10/21 00:29:03;;;;;;;20.10;17.70;;;;;;;;;;5050625;28;20200;-44
2022/10/21 00:31:29;;;;;;;18.90;16.50;;;;;;;;;;5050723;28;20619;-44
2022/10/21 00:33:55;;;;;;;19.17;17.20;;;;;;;;;;5051234;28;20694;-44
2022/10/21 00:36:21;;;;;;;21.23;17.47;;;;;;;;;;5054593;28;20616;-44
2022/10/21 00:38:48;;;;;;;21.97;19.53;;;;;;;;;;5055474;28;20204;-44
2022/10/21 00:41:16;;;;;;;20.17;17.80;;;;;;;;;;5055251;28;20319;-44
2022/10/21 00:43:56;;;;;;;22.40;18.10;;;;;;;;;;5055343;28;20548;-44
2022/10/21 00:46:25;;;;;;;21.20;19.00;;;;;;;;;;5055252;28;20203;-44
2022/10/21 00:48:53;;;;;;;23.07;19.57;;;;;;;;;;5055108;28;20204;-44
2022/10/21 00:51:19;;;;;;;24.30;18.37;;;;;;;;;;5055041;28;20314;-44
2022/10/21 00:53:47;;;;;;;21.30;18.97;;;;;;;;;;5055343;28;20200;-43
2022/10/21 00:56:16;;;;;;;24.23;19.90;;;;;;;;;;5054729;28;20230;-44
2022/10/21 00:58:45;;;;;;;24.77;19.50;;;;;;;;;;5055021;28;20200;-44
2022/10/21 01:01:11;;;;;;;24.10;19.40;;;;;;;;;;5054294;28;20273;-44
2022/10/21 01:03:38;;;;;;;31.10;21.27;;;;;;;;;;5055086;28;20207;-44
2022/10/21 01:06:06;;;;;;;24.53;19.80;;;;;;;;;;5053884;28;20216;-44
2022/10/21 01:08:33;;;;;;;25.80;20.77;;;;;;;;;;5054796;28;20216;-44
2022/10/21 01:10:59;;;;;;;25.07;19.60;;;;;;;;;;5054880;28;20200;-44
2022/10/21 01:13:28;;;;;;;27.50;20.53;;;;;;;;;;5054721;28;20686;-44
2022/10/21 01:16:02;;;;;;;24.73;20.67;;;;;;;;;;5054677;28;20196;-44
2022/10/21 01:18:31;;;;;;;24.10;19.80;;;;;;;;;;5054644;28;20204;-44
2022/10/21 01:21:14;;;;;;;27.00;21.20;;;;;;;;;;5054636;28;20274;-43
2022/10/21 01:23:50;;;;;;;23.10;18.77;;;;;;;;;;5054666;28;20286;-44
2022/10/21 01:26:41;;;;;;;22.77;19.90;;;;;;;;;;5054639;28;20206;-44
2022/10/21 01:29:20;;;;;;;26.97;20.90;;;;;;;;;;5054259;28;20249;-44
2022/10/21 01:31:50;;;;;;;25.20;20.47;;;;;;;;;;5054699;28;20204;-44
2022/10/21 01:34:18;;;;;;;26.70;21.10;;;;;;;;;;5054663;28;20204;-44
2022/10/21 01:36:47;;;;;;;23.90;20.73;;;;;;;;;;5054440;28;20215;-44
2022/10/21 01:39:18;;;;;;;22.57;18.33;;;;;;;;;;5054045;28;20208;-44
2022/10/21 01:41:45;;;;;;;20.53;17.53;;;;;;;;;;5054374;28;20196;-44
2022/10/21 01:44:16;;;;;;;21.43;17.70;;;;;;;;;;5054138;28;20200;-44
2022/10/21 01:46:44;;;;;;;20.97;16.50;;;;;;;;;;5054316;28;20200;-43
2022/10/21 01:49:15;;;;;;;27.80;19.47;;;;;;;;;;5054259;28;20660;-44
2022/10/21 01:51:41;;;;;;;27.77;20.67;;;;;;;;;;5053904;28;20393;-44
2022/10/21 01:54:13;;;;;;;25.53;19.90;;;;;;;;;;5054199;28;20701;-44
2022/10/21 01:56:40;;;;;;;20.50;17.60;;;;;;;;;;5052957;28;20287;-44
2022/10/21 01:59:07;;;;;;;21.67;18.10;;;;;;;;;;5053800;28;20613;-44
2022/10/21 02:01:34;;;;;;;20.70;16.33;;;;;;;;;;5053811;28;20204;-44
2022/10/21 02:04:01;;;;;;;20.97;17.87;;;;;;;;;;5053599;28;20577;-42
2022/10/21 02:06:30;;;;;;;19.03;16.53;;;;;;;;;;5053964;28;20231;-44
2022/10/21 02:08:56;;;;;;;26.27;18.53;;;;;;;;;;5053675;28;20224;-44
2022/10/21 02:11:22;;;;;;;20.90;17.90;;;;;;;;;;5053809;28;20223;-45
2022/10/21 02:13:52;;;;;;;22.80;17.00;;;;;;;;;;5053644;28;20204;-44
2022/10/21 02:16:21;;;;;;;21.27;17.70;;;;;;;;;;5053664;28;20577;-44
2022/10/21 02:18:47;;;;;;;20.00;17.90;;;;;;;;;;5053346;28;20282;-44
2022/10/21 02:21:15;;;;;;;26.53;18.73;;;;;;;;;;5053438;28;20623;-44
2022/10/21 02:23:45;;;;;;;22.13;17.30;;;;;;;;;;5053398;28;20538;-44
2022/10/21 02:26:11;;;;;;;24.03;18.57;;;;;;;;;;5051544;28;20219;-44
2022/10/21 02:28:38;;;;;;;27.03;19.03;;;;;;;;;;5053103;28;20712;-44
2022/10/21 02:31:10;;;;;;;21.80;17.70;;;;;;;;;;5053567;28;20238;-43
2022/10/21 02:33:42;;;;;;;19.20;17.20;;;;;;;;;;5053237;28;20198;-44
2022/10/21 02:36:13;;;;;;;21.40;17.40;;;;;;;;;;5053232;28;20257;-44
2022/10/21 02:38:42;;;;;;;21.93;17.43;;;;;;;;;;5053271;28;20200;-44
2022/10/21 02:41:10;;;;;;;19.43;15.70;;;;;;;;;;5052861;28;20267;-44
2022/10/21 02:43:38;;;;;;;17.30;15.20;;;;;;;;;;5052337;28;20196;-44
2022/10/21 02:46:06;;;;;;;22.70;16.70;;;;;;;;;;5053044;28;20199;-44
2022/10/21 02:48:32;;;;;;;21.57;17.93;;;;;;;;;;5053208;28;20214;-44
2022/10/21 02:50:59;;;;;;;19.57;16.63;;;;;;;;;;5052826;28;20298;-44
2022/10/21 02:53:25;;;;;;;24.20;17.73;;;;;;;;;;5052830;28;20219;-42
2022/10/21 02:55:51;;;;;;;21.93;18.70;;;;;;;;;;5053009;28;20269;-43
2022/10/21 02:58:18;;;;;;;24.20;19.40;;;;;;;;;;5052145;28;20569;-43
2022/10/21 03:00:44;;;;;;;21.50;17.53;;;;;;;;;;5052637;28;20659;-43
2022/10/21 03:03:10;;;;;;;22.90;19.27;;;;;;;;;;5052736;28;20697;-43
2022/10/21 03:05:36;;;;;;;24.87;18.27;;;;;;;;;;5052607;28;20196;-43
2022/10/21 03:08:02;;;;;;;27.13;18.80;;;;;;;;;;5052494;28;20307;-43
2022/10/21 03:10:28;;;;;;;23.00;18.33;;;;;;;;;;5052435;28;20638;-43
2022/10/21 03:12:54;;;;;;;22.27;17.03;;;;;;;;;;5052523;28;20196;-43
2022/10/21 03:15:22;;;;;;;21.53;17.70;;;;;;;;;;5052569;28;20261;-43
2022/10/21 03:17:48;;;;;;;19.50;16.63;;;;;;;;;;5052515;28;20204;-43
2022/10/21 03:20:14;;;;;;;19.87;15.77;;;;;;;;;;5052321;28;20224;-43
2022/10/21 03:22:40;;;;;;;21.20;17.30;;;;;;;;;;5052307;28;20219;-43
2022/10/21 03:25:06;;;;;;;21.60;17.57;;;;;;;;;;5052580;28;20563;-43
2022/10/21 03:27:33;;;;;;;21.30;15.27;;;;;;;;;;5051703;28;20678;-43
2022/10/21 03:29:59;;;;;;;16.43;14.23;;;;;;;;;;5052367;28;20287;-43
2022/10/21 03:32:26;;;;;;;15.37;13.70;;;;;;;;;;5052135;28;20200;-43
2022/10/21 03:34:52;;;;;;;15.80;14.10;;;;;;;;;;5052107;28;20223;-43
2022/10/21 03:37:18;;;;;;;16.77;14.90;;;;;;;;;;5052117;28;20682;-43
2022/10/21 03:39:44;;;;;;;16.53;14.83;;;;;;;;;;5052004;28;20224;-43
2022/10/21 03:42:10;;;;;;;15.10;13.50;;;;;;;;;;5052194;28;20196;-44
2022/10/21 03:44:36;;;;;;;17.60;15.33;;;;;;;;;;5051181;28;20287;-44
2022/10/21 03:47:02;;;;;;;18.20;14.53;;;;;;;;;;5051930;28;20196;-44
2022/10/21 03:49:30;;;;;;;16.33;13.97;;;;;;;;;;5052081;28;20199;-44
2022/10/21 03:51:56;;;;;;;17.97;13.73;;;;;;;;;;5051509;28;20223;-43
2022/10/21 03:54:22;;;;;;;16.63;14.83;;;;;;;;;;5051688;28;20314;-43
2022/10/21 03:56:48;;;;;;;20.80;16.13;;;;;;;;;;5051748;28;20204;-43
2022/10/21 03:59:14;;;;;;;21.27;16.63;;;;;;;;;;5051873;28;20200;-44
2022/10/21 04:01:40;;;;;;;19.00;14.53;;;;;;;;;;5051850;28;20192;-44
2022/10/21 04:04:06;;;;;;;17.20;14.60;;;;;;;;;;5051974;28;20196;-43
2022/10/21 04:06:33;;;;;;;17.50;14.40;;;;;;;;;;5051538;28;20566;-43
2022/10/21 04:08:59;;;;;;;16.17;14.47;;;;;;;;;;5050791;28;20224;-43
2022/10/21 04:11:25;;;;;;;18.37;15.57;;;;;;;;;;5051690;28;20192;-44
2022/10/21 04:13:51;;;;;;;17.00;15.20;;;;;;;;;;5051513;28;20254;-43
2022/10/21 04:16:19;;;;;;;19.50;14.83;;;;;;;;;;5051613;28;20204;-43
2022/10/21 04:18:45;;;;;;;21.40;15.17;;;;;;;;;;5050702;28;20282;-44
2022/10/21 04:21:11;;;;;;;18.33;14.03;;;;;;;;;;5050554;28;20699;-43
2022/10/21 04:23:38;;;;;;;19.97;15.43;;;;;;;;;;5050825;28;20207;-44
2022/10/21 04:26:08;;;;;;;16.40;14.70;;;;;;;;;;5051297;28;20211;-49
2022/10/21 04:28:34;;;;;;;19.80;15.40;;;;;;;;;;5051071;28;20196;-43
2022/10/21 04:31:00;;;;;;;19.27;15.47;;;;;;;;;;5051146;28;20681;-43
2022/10/21 04:33:26;;;;;;;20.03;16.17;;;;;;;;;;5051253;28;20689;-43
2022/10/21 04:35:52;;;;;;;16.57;14.87;;;;;;;;;;5051198;28;20286;-43
2022/10/21 04:38:19;;;;;;;19.57;15.87;;;;;;;;;;5051220;28;20199;-43
2022/10/21 04:40:46;;;;;;;18.43;14.83;;;;;;;;;;5051200;28;20430;-43
2022/10/21 04:43:12;;;;;;;16.80;15.03;;;;;;;;;;5051250;28;20665;-43
2022/10/21 04:45:38;;;;;;;17.93;15.33;;;;;;;;;;5051086;28;20566;-44
2022/10/21 04:48:05;;;;;;;17.30;14.10;;;;;;;;;;5050942;28;20566;-43
2022/10/21 04:50:33;;;;;;;14.20;12.80;;;;;;;;;;5049433;28;20239;-43
2022/10/21 04:52:59;;;;;;;16.63;14.20;;;;;;;;;;5049546;28;20271;-43
2022/10/21 04:55:25;;;;;;;15.67;13.90;;;;;;;;;;5049880;28;20200;-43
2022/10/21 04:57:53;;;;;;;14.30;12.80;;;;;;;;;;5051121;28;20262;-43
2022/10/21 05:00:19;;;;;;;15.73;13.87;;;;;;;;;;5050906;28;20681;-43
2022/10/21 05:02:45;;;;;;;15.13;12.57;;;;;;;;;;5050952;28;20327;-43
2022/10/21 05:05:11;;;;;;;14.10;12.70;;;;;;;;;;5050867;28;20292;-43
2022/10/21 05:07:37;;;;;;;16.43;14.07;;;;;;;;;;5051103;28;20278;-43
2022/10/21 05:10:03;;;;;;;14.53;12.60;;;;;;;;;;5049650;28;20280;-43
2022/10/21 05:12:29;;;;;;;15.37;12.17;;;;;;;;;;5049191;28;20196;-44
2022/10/21 05:14:59;;;;;;;13.90;12.50;;;;;;;;;;5050900;28;20270;-44
2022/10/21 05:17:25;;;;;;;13.33;11.93;;;;;;;;;;5051169;28;20204;-43
2022/10/21 05:19:51;;;;;;;12.73;11.43;;;;;;;;;;5051115;28;20231;-43
2022/10/21 05:22:17;;;;;;;13.70;12.33;;;;;;;;;;5055006;28;20211;-43
2022/10/21 05:24:43;;;;;;;14.73;11.67;;;;;;;;;;5054810;28;20193;-43
2022/10/21 05:27:09;;;;;;;15.10;11.87;;;;;;;;;;5054735;28;20207;-44
2022/10/21 05:29:35;;;;;;;13.50;11.70;;;;;;;;;;5054641;28;20852;-44
2022/10/21 05:32:03;;;;;;;13.60;11.13;;;;;;;;;;5054713;28;20217;-44
2022/10/21 05:34:29;;;;;;;12.87;11.63;;;;;;;;;;5054479;28;20208;-44
2022/10/21 05:36:55;;;;;;;18.87;13.37;;;;;;;;;;5054770;28;20238;-44
2022/10/21 05:39:21;;;;;;;14.37;12.90;;;;;;;;;;5054575;28;20201;-44
2022/10/21 05:41:47;;;;;;;16.07;13.63;;;;;;;;;;5054634;28;20214;-44
2022/10/21 05:44:13;;;;;;;16.37;12.17;;;;;;;;;;5054298;28;20184;-44
2022/10/21 05:46:39;;;;;;;15.07;12.77;;;;;;;;;;5054358;28;20456;-44
2022/10/21 05:49:06;;;;;;;14.00;11.70;;;;;;;;;;5054301;28;20196;-44
2022/10/21 05:51:32;;;;;;;13.17;11.00;;;;;;;;;;5053812;28;20236;-44
2022/10/21 05:53:58;;;;;;;13.43;11.33;;;;;;;;;;5053164;28;20626;-44
2022/10/21 05:56:24;;;;;;;12.90;11.50;;;;;;;;;;5054233;28;20206;-43
2022/10/21 05:58:50;;;;;;;15.43;13.07;;;;;;;;;;5054292;28;20223;-43
2022/10/21 06:01:16;;;;;;;17.00;13.67;;;;;;;;;;5054032;28;20235;-43
2022/10/21 06:03:42;;;;;;;13.93;12.23;;;;;;;;;;5054221;28;20196;-44
2022/10/21 06:06:10;;;;;;;18.17;13.93;;;;;;;;;;5054323;28;20208;-44
2022/10/21 06:08:37;;;;;;;16.57;13.20;;;;;;;;;;5053989;28;20231;-43
2022/10/21 06:11:05;;;;;;;13.27;11.90;;;;;;;;;;5051581;28;20658;-44
2022/10/21 06:13:31;;;;;;;18.10;12.97;;;;;;;;;;5053251;28;20243;-44
2022/10/21 06:15:57;;;;;;;13.37;12.00;;;;;;;;;;5053516;28;20655;-44
2022/10/21 06:18:23;;;;;;;14.67;11.83;;;;;;;;;;5053839;28;20203;-43
2022/10/21 06:20:49;;;;;;;13.17;11.67;;;;;;;;;;5053357;28;20629;-44
2022/10/21 06:23:17;;;;;;;12.93;11.10;;;;;;;;;;5051779;28;20295;-44
2022/10/21 06:25:43;;;;;;;14.03;11.27;;;;;;;;;;5052053;28;20204;-43
2022/10/21 06:28:09;;;;;;;12.57;11.27;;;;;;;;;;5052897;28;20622;-43
2022/10/21 06:30:35;;;;;;;13.87;11.93;;;;;;;;;;5050867;28;20602;-43
2022/10/21 06:33:01;;;;;;;15.47;12.63;;;;;;;;;;5052297;28;20226;-43
2022/10/21 06:35:27;;;;;;;13.50;12.10;;;;;;;;;;5053116;28;20231;-43
2022/10/21 06:37:53;;;;;;;17.93;13.20;;;;;;;;;;5053437;28;20203;-44
2022/10/21 06:40:21;;;;;;;16.77;13.60;;;;;;;;;;5053411;28;20224;-44
2022/10/21 06:42:49;;;;;;;13.27;11.97;;;;;;;;;;5052119;28;20398;-44
2022/10/21 06:45:15;;;;;;;12.77;11.37;;;;;;;;;;5052837;28;20211;-43
2022/10/21 06:47:41;;;;;;;12.43;11.23;;;;;;;;;;5052805;28;20201;-44
2022/10/21 06:50:08;;;;;;;22.10;13.47;;;;;;;;;;5052708;28;20322;-44
2022/10/21 06:52:34;;;;;;;14.90;12.33;;;;;;;;;;5052663;28;20249;-44
2022/10/21 06:55:00;;;;;;;18.13;12.53;;;;;;;;;;5052640;28;20563;-44
2022/10/21 06:57:27;;;;;;;14.97;12.50;;;;;;;;;;5052463;28;20196;-44
2022/10/21 06:59:53;;;;;;;13.23;11.87;;;;;;;;;;5052683;28;20266;-44
2022/10/21 07:02:19;;;;;;;15.53;13.77;;;;;;;;;;5052464;28;20200;-43
2022/10/21 07:04:48;;;;;;;17.77;14.37;;;;;;;;;;5052495;28;20216;-43
2022/10/21 07:07:14;;;;;;;17.03;14.40;;;;;;;;;;5052351;28;20206;-43
2022/10/21 07:09:40;;;;;;;15.33;13.63;;;;;;;;;;5052483;28;20245;-44
2022/10/21 07:12:06;;;;;;;17.13;13.20;;;;;;;;;;5052236;28;20193;-44
2022/10/21 07:14:33;;;;;;;13.63;11.73;;;;;;;;;;5052250;28;20195;-44
2022/10/21 07:16:59;;;;;;;22.20;13.40;;;;;;;;;;5052564;28;20208;-44
2022/10/21 07:19:25;;;;;;;13.07;11.77;;;;;;;;;;5051430;28;20683;-44
2022/10/21 07:21:51;;;;;;;14.03;11.90;;;;;;;;;;5051984;28;20299;-44
2022/10/21 07:24:17;;;;;;;14.87;12.53;;;;;;;;;;5052179;28;20234;-44
2022/10/21 07:26:43;;;;;;;15.17;11.80;;;;;;;;;;5051717;28;20257;-44
2022/10/21 07:29:09;;;;;;;15.87;12.40;;;;;;;;;;5052129;28;20204;-44
2022/10/21 07:31:37;;;;;;;12.43;11.00;;;;;;;;;;5051976;28;20295;-44
2022/10/21 07:34:04;;;;;;;12.00;10.80;;;;;;;;;;5051135;28;20706;-44
2022/10/21 07:36:31;;;;;;;15.17;13.43;;;;;;;;;;5051838;28;20200;-44
2022/10/21 07:38:58;;;;;;;15.67;13.13;;;;;;;;;;5051975;28;20223;-45
2022/10/21 07:41:26;;;;;;;14.77;13.13;;;;;;;;;;5051867;28;20642;-44
2022/10/21 07:43:52;;;;;;;14.37;12.87;;;;;;;;;;5051725;28;20196;-44
2022/10/21 07:46:19;;;;;;;13.47;11.50;;;;;;;;;;5051463;28;20326;-44
2022/10/21 07:48:46;;;;;;;13.30;11.90;;;;;;;;;;5051834;28;20265;-44
2022/10/21 07:51:13;;;;;;;13.80;12.27;;;;;;;;;;5051813;28;20227;-44
2022/10/21 07:53:40;;;;;;;12.73;11.43;;;;;;;;;;5051561;28;20200;-44
2022/10/21 07:56:07;;;;;;;12.47;10.70;;;;;;;;;;5051529;28;20204;-44
2022/10/21 07:58:33;;;;;;;11.57;10.37;;;;;;;;;;5051596;28;20204;-43
2022/10/21 08:00:59;;;;;;;14.80;11.50;;;;;;;;;;5051558;28;20694;-44
2022/10/21 08:03:26;;;;;;;10.63;9.63;;;;;;;;;;5051355;28;20210;-43
2022/10/21 08:05:54;;;;;;;10.90;9.80;;;;;;;;;;5051419;28;20720;-43
2022/10/21 08:08:20;;;;;;;11.07;9.93;;;;;;;;;;5050673;28;20223;-43
2022/10/21 08:10:47;;;;;;;15.53;11.60;;;;;;;;;;5050635;28;20200;-43
2022/10/21 08:13:13;;;;;;;11.17;9.80;;;;;;;;;;5051069;28;20192;-44
2022/10/21 08:15:41;;;;;;;12.63;11.43;;;;;;;;;;5051127;28;20227;-43
2022/10/21 08:18:07;;;;;;;14.07;11.77;;;;;;;;;;5051133;28;20737;-44
2022/10/21 08:20:33;;;;;;;12.20;10.73;;;;;;;;;;5051160;28;20277;-44
2022/10/21 08:23:00;;;;;;;12.53;10.90;;;;;;;;;;5051419;28;20223;-43
2022/10/21 08:25:28;;;;;;;13.63;11.90;;;;;;;;;;5050990;28;20236;-44
2022/10/21 08:27:54;;;;;;;12.53;11.20;;;;;;;;;;5051076;28;20279;-44
2022/10/21 08:30:20;;;;;;;12.63;11.33;;;;;;;;;;5050306;28;20654;-44
2022/10/21 08:32:47;;;;;;;12.00;10.53;;;;;;;;;;5050844;28;20742;-44
2022/10/21 08:35:12;;;;;;;11.80;10.00;;;;;;;;;;5050867;28;20623;-44
2022/10/21 08:37:39;;;;;;;12.27;10.73;;;;;;;;;;5050917;28;20291;-44
2022/10/21 08:40:07;;;;;;;11.30;10.20;;;;;;;;;;5050750;28;20230;-44
2022/10/21 08:42:34;;;;;;;11.57;10.47;;;;;;;;;;5050820;28;20207;-44
2022/10/21 08:45:05;;;;;;;11.10;9.90;;;;;;;;;;5050826;28;20204;-44
2022/10/21 08:47:35;;;;;;;11.70;10.50;;;;;;;;;;5050681;28;20235;-44
2022/10/21 08:50:03;;;;;;;11.07;9.77;;;;;;;;;;5050786;28;20252;-43
2022/10/21 08:52:34;;;;;;;11.07;9.87;;;;;;;;;;5050885;28;20200;-44
2022/10/21 08:55:01;;;;;;;9.77;8.77;;;;;;;;;;5051327;28;20200;-44
2022/10/21 08:57:30;;;;;;;11.53;9.60;;;;;;;;;;5053939;28;20199;-44
2022/10/21 08:59:56;;;;;;;11.07;9.23;;;;;;;;;;5054597;28;20204;-44
2022/10/21 09:02:33;;;;;;;10.20;9.30;;;;;;;;;;5054831;28;20204;-44
2022/10/21 09:05:09;;;;;;;10.30;9.13;;;;;;;;;;5054793;28;20195;-44
2022/10/21 09:07:42;;;;;;;10.57;9.47;;;;;;;;;;5054453;28;20678;-44
2022/10/21 09:10:12;;;;;;;11.40;10.00;;;;;;;;;;5054627;28;20266;-44
2022/10/21 09:12:43;;;;;;;9.83;8.60;;;;;;;;;;5054252;28;20219;-45
2022/10/21 09:15:17;;;;;;;9.80;8.80;;;;;;;;;;5054586;28;20212;-45
2022/10/21 09:17:53;;;;;;;9.40;8.23;;;;;;;;;;5054386;28;20220;-45
2022/10/21 09:20:26;;;;;;;8.57;7.77;;;;;;;;;;5054631;28;20215;-45
2022/10/21 09:22:54;;;;;;;8.87;7.97;;;;;;;;;;5054511;28;20204;-45
2022/10/21 09:25:23;;;;;;;7.73;7.03;;;;;;;;;;5054339;28;20200;-45
2022/10/21 09:27:51;;;;;;;8.33;7.33;;;;;;;;;;5054240;28;20283;-45
2022/10/21 09:30:19;;;;;;;7.00;6.33;;;;;;;;;;5054532;28;20204;-45
2022/10/21 09:32:48;;;;;;;7.50;6.80;;;;;;;;;;5054187;28;20562;-45
2022/10/21 09:35:17;;;;;;;6.67;6.07;;;;;;;;;;5054334;28;20283;-45
2022/10/21 09:37:45;;;;;;;6.70;6.07;;;;;;;;;;5054165;28;20664;-45
2022/10/21 09:40:14;;;;;;;7.33;4.97;;;;;;;;;;5054042;28;20221;-45
2022/10/21 09:42:40;;;;;;;6.90;5.67;;;;;;;;;;5054159;28;20199;-45
2022/10/21 09:45:15;;;;;;;6.07;5.47;;;;;;;;;;5053987;28;20673;-46
2022/10/21 09:47:41;;;;;;;4.77;4.30;;;;;;;;;;5053931;28;20661;-46
2022/10/21 09:50:14;;;;;;;8.53;5.60;;;;;;;;;;5054132;28;20320;-45
2022/10/21 09:52:52;;;;;;;7.77;5.00;;;;;;;;;;5053773;28;20214;-45
2022/10/21 09:55:18;;;;;;;9.23;4.77;;;;;;;;;;5053982;28;20210;-45
2022/10/21 09:57:46;;;;;;;7.00;5.13;;;;;;;;;;5053804;28;20199;-46
2022/10/21 10:00:14;;;;;;;4.63;4.20;;;;;;;;;;5053559;28;20695;-45
2022/10/21 10:02:44;;;;;;;5.47;4.70;;;;;;;;;;5053754;28;20263;-45
2022/10/21 10:05:29;;;;;;;6.77;4.63;;;;;;;;;;5053665;28;20206;-46
2022/10/21 10:07:55;;;;;;;8.93;4.93;;;;;;;;;;5050091;28;20208;-45
2022/10/21 10:10:28;;;;;;;5.77;4.53;;;;;;;;;;5052406;28;20228;-46
2022/10/21 10:12:58;;;;;;;4.73;4.10;;;;;;;;;;5053953;28;20211;-46
2022/10/21 10:15:34;;;;;;;5.20;4.70;;;;;;;;;;5053034;28;20201;-46
2022/10/21 10:18:00;;;;;;;7.37;4.30;;;;;;;;;;5053213;28;20200;-47
2022/10/21 10:20:26;;;;;;;8.27;4.77;;;;;;;;;;5052331;28;20240;-45
2022/10/21 10:23:17;;;;;;;6.60;4.57;;;;;;;;;;5053200;28;20242;-45
2022/10/21 10:25:48;;;;;;;5.77;5.03;;;;;;;;;;5053153;28;20279;-45
2022/10/21 10:28:16;;;;;;;6.37;5.03;;;;;;;;;;5053094;28;20196;-46
2022/10/21 10:30:47;;;;;;;9.97;5.00;;;;;;;;;;5053010;28;20219;-46
2022/10/21 10:33:15;;;;;;;5.30;4.80;;;;;;;;;;5053012;28;20235;-48
2022/10/21 10:35:46;;;;;;;6.03;5.23;;;;;;;;;;5051837;28;20211;-46
2022/10/21 10:38:18;;;;;;;10.33;5.20;;;;;;;;;;5053082;28;20197;-46
2022/10/21 10:40:44;;;;;;;6.17;4.83;;;;;;;;;;5052802;28;20260;-46
2022/10/21 10:43:13;;;;;;;5.40;4.90;;;;;;;;;;5052941;28;20232;-46
2022/10/21 10:45:46;;;;;;;10.40;5.10;;;;;;;;;;5052872;28;20197;-46
2022/10/21 10:48:18;;;;;;;6.50;4.40;;;;;;;;;;5052813;28;20196;-46
2022/10/21 10:50:45;;;;;;;7.03;4.17;;;;;;;;;;5052770;28;20285;-46
2022/10/21 10:53:35;;;;;;;6.40;4.50;;;;;;;;;;5052774;28;20200;-44
2022/10/21 10:56:14;;;;;;;6.97;4.10;;;;;;;;;;5037472;28;20200;-44
2022/10/21 10:58:43;;;;;;;5.47;4.40;;;;;;;;;;5052691;28;20207;-45
2022/10/21 11:01:12;;;;;;;4.67;4.03;;;;;;;;;;5052533;28;20319;-46
2022/10/21 11:03:42;;;;;;;4.70;4.10;;;;;;;;;;5052485;28;20691;-46
2022/10/21 11:06:13;;;;;;;5.93;4.30;;;;;;;;;;5052087;28;20205;-46
2022/10/21 11:08:41;;;;;;;4.63;3.90;;;;;;;;;;5052183;28;20307;-45
2022/10/21 11:11:12;;;;;;;4.57;4.13;;;;;;;;;;5052301;28;20238;-45
2022/10/21 11:13:39;;;;;;;4.50;4.10;;;;;;;;;;5052496;28;20205;-45
2022/10/21 11:16:10;;;;;;;6.07;3.43;;;;;;;;;;5052417;28;20199;-46
2022/10/21 11:18:38;;;;;;;5.20;4.07;;;;;;;;;;5051235;28;20205;-47
2022/10/21 11:21:10;;;;;;;4.00;3.60;;;;;;;;;;5052283;28;20228;-45
2022/10/21 11:23:47;;;;;;;6.87;3.93;;;;;;;;;;5052216;28;20737;-45
2022/10/21 11:26:19;;;;;;;3.60;3.30;;;;;;;;;;5052043;28;20740;-45
2022/10/21 11:28:49;;;;;;;4.40;4.00;;;;;;;;;;5052158;28;20287;-45
2022/10/21 11:31:20;;;;;;;4.33;3.63;;;;;;;;;;5052279;28;20196;-45
2022/10/21 11:33:49;;;;;;;4.80;3.60;;;;;;;;;;5052500;28;20196;-45
2022/10/21 11:36:20;;;;;;;3.90;3.30;;;;;;;;;;5052556;28;20201;-45
2022/10/21 11:38:52;;;;;;;7.67;3.60;;;;;;;;;;5052335;28;20222;-45
2022/10/21 11:41:30;;;;;;;5.00;3.23;;;;;;;;;;5052228;28;20223;-45
2022/10/21 11:44:01;;;;;;;6.80;4.03;;;;;;;;;;5052397;28;20197;-45
2022/10/21 11:46:32;;;;;;;8.50;4.07;;;;;;;;;;5052367;28;20238;-45
2022/10/21 11:49:06;;;;;;;4.17;3.80;;;;;;;;;;5052560;28;20210;-45
2022/10/21 11:51:43;;;;;;;5.53;3.90;;;;;;;;;;5052040;28;20650;-46
2022/10/21 11:54:27;;;;;;;7.07;4.10;;;;;;;;;;5052074;28;20193;-46
2022/10/21 11:56:57;;;;;;;6.23;4.00;;;;;;;;;;5051925;28;20215;-45
2022/10/21 11:59:27;;;;;;;5.30;4.00;;;;;;;;;;5052148;28;20198;-45
2022/10/21 12:01:59;;;;;;;9.60;3.87;;;;;;;;;;5051917;28;20691;-45
2022/10/21 12:04:32;;;;;;;6.10;3.53;;;;;;;;;;5052178;28;20729;-45
2022/10/21 12:07:08;;;;;;;6.37;3.73;;;;;;;;;;5052109;28;20221;-45
2022/10/21 12:09:39;;;;;;;5.90;3.43;;;;;;;;;;5051937;28;20284;-46
2022/10/21 12:12:08;;;;;;;7.13;3.60;;;;;;;;;;5051988;28;20287;-45
2022/10/21 12:14:37;;;;;;;5.97;3.57;;;;;;;;;;5051864;28;20200;-45
2022/10/21 12:17:06;;;;;;;5.67;3.87;;;;;;;;;;5051872;28;20197;-45
2022/10/21 12:19:32;;;;;;;3.80;3.20;;;;;;;;;;5051710;28;20197;-46
2022/10/21 12:21:58;;;;;;;7.50;3.73;;;;;;;;;;5051739;28;20627;-46
2022/10/21 12:24:35;;;;;;;5.03;3.60;;;;;;;;;;5051730;28;20231;-46
2022/10/21 12:27:07;;;;;;;5.00;3.57;;;;;;;;;;5051581;28;20258;-46
2022/10/21 12:29:42;;;;;;;5.50;4.30;;;;;;;;;;5051050;28;20246;-46
2022/10/21 12:32:15;;;;;;;7.97;3.50;;;;;;;;;;5051670;28;20200;-46
2022/10/21 12:34:41;;;;;;;9.00;3.97;;;;;;;;;;5051590;28;20200;-46
2022/10/21 12:37:22;;;;;;;7.50;3.73;;;;;;;;;;5051492;28;20207;-46
2022/10/21 12:39:50;;;;;;;4.07;3.47;;;;;;;;;;5049682;28;20214;-45
2022/10/21 12:42:17;;;;;;;7.57;3.80;;;;;;;;;;5050988;28;20719;-46
2022/10/21 12:44:45;;;;;;;6.07;3.73;;;;;;;;;;5049484;28;20198;-46
2022/10/21 12:47:22;;;;;;;4.20;3.30;;;;;;;;;;5051701;28;20660;-46
2022/10/21 12:50:03;;;;;;;7.80;3.50;;;;;;;;;;5051330;28;20205;-44
2022/10/21 12:52:29;;;;;;;6.27;3.80;;;;;;;;;;5049314;28;20207;-44
2022/10/21 12:54:58;;;;;;;6.47;4.03;;;;;;;;;;5049997;28;20215;-44
2022/10/21 12:57:27;;;;;;;8.10;4.13;;;;;;;;;;5051070;28;20255;-45
2022/10/21 13:00:13;;;;;;;5.83;3.77;;;;;;;;;;5049473;28;20250;-45
2022/10/21 13:02:54;;;;;;;4.00;3.30;;;;;;;;;;5049565;28;20202;-45
2022/10/21 13:05:51;;;;;;;10.23;4.30;;;;;;;;;;5049602;28;20308;-45
2022/10/21 13:08:26;;;;;;;3.60;3.30;;;;;;;;;;5051491;28;20208;-44
2022/10/21 13:11:07;;;;;;;7.73;4.13;;;;;;;;;;5048024;28;20196;-44
2022/10/21 13:13:35;;;;;;;5.77;3.90;;;;;;;;;;5048646;28;20655;-44
2022/10/21 13:16:21;;;;;;;6.20;3.80;;;;;;;;;;5051597;28;20205;-44
2022/10/21 13:18:52;;;;;;;5.73;3.83;;;;;;;;;;5051070;28;20285;-44
2022/10/21 13:21:25;;;;;;;6.97;3.93;;;;;;;;;;5049546;28;20278;-44
2022/10/21 13:23:51;;;;;;;6.47;4.03;;;;;;;;;;5050851;28;20248;-44
2022/10/21 13:26:23;;;;;;;5.47;4.17;;;;;;;;;;5050929;28;20787;-45
2022/10/21 13:28:58;;;;;;;5.43;3.63;;;;;;;;;;5050503;28;20284;-44
2022/10/21 13:31:24;;;;;;;8.13;4.07;;;;;;;;;;5051293;28;20230;-44
2022/10/21 13:33:52;;;;;;;6.43;3.60;;;;;;;;;;5051194;28;20209;-44
2022/10/21 13:36:24;;;;;;;5.83;3.90;;;;;;;;;;5051160;28;20200;-44
2022/10/21 13:38:51;;;;;;;5.93;3.83;;;;;;;;;;5051077;28;20219;-44
2022/10/21 13:41:20;;;;;;;9.57;4.03;;;;;;;;;;5051623;28;20313;-44
2022/10/21 13:43:48;;;;;;;8.67;4.23;;;;;;;;;;5054656;28;20220;-44
2022/10/21 13:46:16;;;;;;;8.27;3.77;;;;;;;;;;5054630;28;20196;-44
2022/10/21 13:48:43;;;;;;;6.43;3.90;;;;;;;;;;5054483;28;20207;-43
2022/10/21 13:51:17;;;;;;;8.57;4.47;;;;;;;;;;5054816;28;20224;-43
2022/10/21 13:53:44;;;;;;;6.60;4.03;;;;;;;;;;5054370;28;20690;-43
2022/10/21 13:56:17;;;;;;;8.97;4.00;;;;;;;;;;5054387;28;20196;-44
2022/10/21 13:58:44;;;;;;;7.73;4.30;;;;;;;;;;5054268;28;20250;-44
2022/10/21 14:01:10;;;;;;;5.10;4.37;;;;;;;;;;5054148;28;20237;-44
2022/10/21 14:03:38;;;;;;;6.07;4.63;;;;;;;;;;5054032;28;20204;-43
2022/10/21 14:06:07;;;;;;;6.47;4.60;;;;;;;;;;5053781;28;20719;-44
2022/10/21 14:08:37;;;;;;;6.27;5.17;;;;;;;;;;5053304;28;20690;-44
2022/10/21 14:11:08;;;;;;;5.97;5.07;;;;;;;;;;5053726;28;20663;-44
2022/10/21 14:13:35;;;;;;;5.83;4.80;;;;;;;;;;5053735;28;20200;-44
2022/10/21 14:16:02;;;;;;;7.23;5.10;;;;;;;;;;5053658;28;20215;-44
2022/10/21 14:18:30;;;;;;;6.10;4.90;;;;;;;;;;5053089;28;20204;-44
2022/10/21 14:20:58;;;;;;;8.73;4.70;;;;;;;;;;5052359;28;20310;-43
2022/10/21 14:23:24;;;;;;;8.43;4.40;;;;;;;;;;5053297;28;20283;-43
2022/10/21 14:25:51;;;;;;;7.13;4.40;;;;;;;;;;5052781;28;20679;-44
2022/10/21 14:28:17;;;;;;;7.70;4.67;;;;;;;;;;5052994;28;20204;-43
2022/10/21 14:30:44;;;;;;;4.63;4.13;;;;;;;;;;5053401;28;20196;-43
2022/10/21 14:33:15;;;;;;;6.97;4.37;;;;;;;;;;5053466;28;20299;-43
2022/10/21 14:35:42;;;;;;;6.23;4.00;;;;;;;;;;5053340;28;20242;-43